Time;durP1;ratioP1;P1;durP2;ratioP2;P2;SDS_P1;SDS_P2;PMS_P1;PMS_P2;Temp;Humidity;BMP_temperature;BMP_pressure;BME280_temperature;BME280_humidity;BME280_pressure;Samples;Min_cycle;Max_cycle;Signal;HPM_P1;HPM_P2
2023/06/13 00:00:47;;;;;;;4.07;2.53;;;;;;;;;;5064825;28;20498;-75
2023/06/13 00:03:13;;;;;;;6.53;3.20;;;;;;;;;;5072083;28;20035;-75
2023/06/13 00:05:45;;;;;;;2.97;2.47;;;;;;;;;;5066963;28;20028;-75
2023/06/13 00:08:19;;;;;;;6.43;3.00;;;;;;;;;;5082200;28;20028;-74
2023/06/13 00:10:48;;;;;;;15.88;3.72;;;;;;;;;;5082079;28;20190;-74
2023/06/13 00:13:14;;;;;;;6.97;3.28;;;;;;;;;;5072525;28;20043;-75
2023/06/13 00:15:51;;;;;;;7.53;2.83;;;;;;;;;;5069518;28;20028;-73
2023/06/13 00:18:19;;;;;;;3.35;3.05;;;;;;;;;;5070671;28;20475;-73
2023/06/13 00:20:45;;;;;;;4.25;2.97;;;;;;;;;;5086828;28;20028;-76
2023/06/13 00:23:12;;;;;;;4.57;2.97;;;;;;;;;;5090281;28;20127;-76
2023/06/13 00:25:37;;;;;;;7.30;2.63;;;;;;;;;;5084059;28;20028;-75
2023/06/13 00:28:02;;;;;;;2.47;2.15;;;;;;;;;;5074215;28;20040;-75
2023/06/13 00:30:28;;;;;;;11.48;3.30;;;;;;;;;;5065474;28;20044;-75
2023/06/13 00:32:56;;;;;;;2.58;2.28;;;;;;;;;;5060654;28;20020;-75
2023/06/13 00:35:22;;;;;;;3.17;2.40;;;;;;;;;;5063311;28;20024;-75
2023/06/13 00:37:50;;;;;;;6.07;2.95;;;;;;;;;;5076541;28;20035;-75
2023/06/13 00:40:17;;;;;;;4.03;2.60;;;;;;;;;;5071590;28;20094;-75
2023/06/13 00:42:42;;;;;;;4.32;3.03;;;;;;;;;;5066334;28;20029;-75
2023/06/13 00:45:26;;;;;;;3.70;2.50;;;;;;;;;;5076825;28;20086;-75
2023/06/13 00:48:01;;;;;;;6.00;2.80;;;;;;;;;;5056406;28;20066;-75
2023/06/13 00:50:32;;;;;;;6.32;3.03;;;;;;;;;;5058404;28;20048;-74
2023/06/13 00:52:59;;;;;;;4.43;2.95;;;;;;;;;;5062518;28;20472;-75
2023/06/13 00:55:26;;;;;;;6.45;2.95;;;;;;;;;;5058580;28;20033;-75
2023/06/13 00:57:56;;;;;;;3.45;2.70;;;;;;;;;;5062408;28;20072;-75
2023/06/13 01:00:25;;;;;;;7.97;2.67;;;;;;;;;;5079137;28;20036;-75
2023/06/13 01:03:02;;;;;;;3.45;2.58;;;;;;;;;;5072825;28;20103;-75
2023/06/13 01:05:28;;;;;;;4.57;2.80;;;;;;;;;;5059788;28;20056;-75
2023/06/13 01:07:58;;;;;;;8.50;2.95;;;;;;;;;;5067722;28;20032;-75
2023/06/13 01:10:25;;;;;;;7.40;2.80;;;;;;;;;;5073879;28;20496;-73
2023/06/13 01:13:02;;;;;;;3.35;2.63;;;;;;;;;;5074208;28;20453;-73
2023/06/13 01:15:32;;;;;;;5.07;2.92;;;;;;;;;;5070563;28;20090;-73
2023/06/13 01:18:00;;;;;;;4.75;3.28;;;;;;;;;;5079128;28;20114;-74
2023/06/13 01:20:31;;;;;;;4.30;2.97;;;;;;;;;;5072549;28;20549;-74
2023/06/13 01:23:06;;;;;;;4.13;1.95;;;;;;;;;;5070664;28;20035;-74
2023/06/13 01:25:47;;;;;;;3.50;2.60;;;;;;;;;;5062465;28;20036;-74
2023/06/13 01:28:14;;;;;;;3.88;2.55;;;;;;;;;;5070466;28;20033;-74
2023/06/13 01:30:41;;;;;;;2.47;2.25;;;;;;;;;;5070152;28;20036;-74
2023/06/13 01:33:08;;;;;;;2.90;2.67;;;;;;;;;;5078818;28;20378;-74
2023/06/13 01:35:36;;;;;;;6.05;2.70;;;;;;;;;;5073938;28;20057;-74
2023/06/13 01:38:03;;;;;;;5.40;3.13;;;;;;;;;;5072002;28;20043;-74
2023/06/13 01:40:29;;;;;;;3.63;2.55;;;;;;;;;;5061908;28;20067;-74
2023/06/13 01:42:54;;;;;;;3.40;2.88;;;;;;;;;;5071879;28;20067;-74
2023/06/13 01:45:20;;;;;;;4.45;3.38;;;;;;;;;;5068418;28;20123;-74
2023/06/13 01:47:50;;;;;;;6.07;3.00;;;;;;;;;;5073054;28;20036;-74
2023/06/13 01:50:50;;;;;;;3.03;2.28;;;;;;;;;;5065640;28;20048;-74
2023/06/13 01:53:30;;;;;;;2.97;2.72;;;;;;;;;;5047385;28;20098;-74
2023/06/13 01:56:00;;;;;;;7.47;3.50;;;;;;;;;;5062033;28;20032;-74
2023/06/13 01:58:34;;;;;;;3.70;2.63;;;;;;;;;;5061555;28;20037;-74
2023/06/13 02:01:03;;;;;;;7.35;3.25;;;;;;;;;;5067800;28;20045;-74
2023/06/13 02:03:29;;;;;;;5.28;2.97;;;;;;;;;;5066818;28;20115;-74
2023/06/13 02:05:54;;;;;;;2.75;2.28;;;;;;;;;;5074731;28;20107;-74
2023/06/13 02:08:19;;;;;;;5.88;2.75;;;;;;;;;;5057688;28;20035;-74
2023/06/13 02:10:45;;;;;;;10.48;3.10;;;;;;;;;;5056405;28;20040;-74
2023/06/13 02:13:10;;;;;;;6.63;3.38;;;;;;;;;;5066314;28;20525;-74
2023/06/13 02:15:36;;;;;;;2.22;2.13;;;;;;;;;;5070080;28;20463;-74
2023/06/13 02:18:02;;;;;;;4.82;2.95;;;;;;;;;;5056662;28;20028;-74
2023/06/13 02:20:27;;;;;;;6.22;2.58;;;;;;;;;;5072517;28;20040;-74
2023/06/13 02:22:53;;;;;;;2.60;2.40;;;;;;;;;;5064298;28;20448;-74
2023/06/13 02:25:18;;;;;;;3.00;2.28;;;;;;;;;;5065765;28;20041;-74
2023/06/13 02:27:43;;;;;;;4.15;2.35;;;;;;;;;;5060208;28;20045;-74
2023/06/13 02:30:09;;;;;;;25.65;2.85;;;;;;;;;;5062757;28;20051;-74
2023/06/13 02:32:39;;;;;;;3.53;1.63;;;;;;;;;;5066047;28;20054;-73
2023/06/13 02:35:08;;;;;;;3.10;2.80;;;;;;;;;;5071402;28;20036;-74
2023/06/13 02:37:33;;;;;;;3.40;2.47;;;;;;;;;;5055433;28;20579;-74
2023/06/13 02:39:58;;;;;;;3.42;2.45;;;;;;;;;;5055601;28;20045;-74
2023/06/13 02:42:26;;;;;;;4.00;3.00;;;;;;;;;;5071307;28;20039;-74
2023/06/13 02:44:52;;;;;;;8.02;2.58;;;;;;;;;;5054170;28;20498;-74
2023/06/13 02:47:19;;;;;;;3.30;2.63;;;;;;;;;;5059954;28;20047;-75
2023/06/13 02:49:44;;;;;;;3.20;2.40;;;;;;;;;;5067121;28;20071;-74
2023/06/13 02:52:09;;;;;;;4.97;2.88;;;;;;;;;;5067900;28;20061;-75
2023/06/13 02:54:35;;;;;;;7.20;2.67;;;;;;;;;;5065120;28;20047;-73
2023/06/13 02:57:00;;;;;;;6.25;2.70;;;;;;;;;;5057369;28;20020;-73
2023/06/13 02:59:27;;;;;;;5.47;3.08;;;;;;;;;;5056067;28;20021;-74
2023/06/13 03:01:52;;;;;;;3.75;2.80;;;;;;;;;;5060083;28;20086;-74
2023/06/13 03:04:18;;;;;;;3.83;2.97;;;;;;;;;;5067771;28;20041;-73
2023/06/13 03:06:44;;;;;;;3.20;2.85;;;;;;;;;;5064496;28;20063;-74
2023/06/13 03:09:11;;;;;;;6.05;2.72;;;;;;;;;;5066230;28;20032;-74
2023/06/13 03:11:36;;;;;;;6.45;3.15;;;;;;;;;;5081553;28;20062;-74
2023/06/13 03:14:02;;;;;;;3.50;2.75;;;;;;;;;;5069545;28;20116;-74
2023/06/13 03:16:28;;;;;;;3.08;2.60;;;;;;;;;;5066439;28;20420;-75
2023/06/13 03:18:53;;;;;;;11.55;2.63;;;;;;;;;;5070850;28;20123;-74
2023/06/13 03:21:20;;;;;;;3.03;2.75;;;;;;;;;;5069436;28;20158;-75
2023/06/13 03:23:46;;;;;;;5.30;2.63;;;;;;;;;;5074646;28;20025;-74
2023/06/13 03:26:11;;;;;;;11.10;3.13;;;;;;;;;;5080411;28;20032;-74
2023/06/13 03:28:36;;;;;;;5.85;2.58;;;;;;;;;;5066657;28;20056;-76
2023/06/13 03:31:02;;;;;;;3.70;2.97;;;;;;;;;;5068353;28;20041;-74
2023/06/13 03:33:27;;;;;;;3.40;2.85;;;;;;;;;;5084271;28;20115;-76
2023/06/13 03:35:53;;;;;;;4.18;2.80;;;;;;;;;;5064703;28;20025;-74
2023/06/13 03:38:19;;;;;;;4.13;2.75;;;;;;;;;;5071515;28;20575;-74
2023/06/13 03:40:44;;;;;;;11.15;2.92;;;;;;;;;;5072017;28;20060;-74
2023/06/13 03:43:10;;;;;;;8.82;2.72;;;;;;;;;;5080433;28;20034;-74
2023/06/13 03:45:35;;;;;;;3.05;2.75;;;;;;;;;;5069692;28;20071;-74
2023/06/13 03:48:01;;;;;;;3.08;2.70;;;;;;;;;;5066424;28;20028;-75
2023/06/13 03:50:26;;;;;;;15.85;2.90;;;;;;;;;;5065670;28;20067;-74
2023/06/13 03:52:51;;;;;;;4.80;2.80;;;;;;;;;;5060142;28;20040;-74
2023/06/13 03:55:18;;;;;;;11.45;2.70;;;;;;;;;;5068187;28;20035;-74
2023/06/13 03:57:43;;;;;;;3.55;2.70;;;;;;;;;;5071336;28;20032;-74
2023/06/13 04:00:10;;;;;;;5.47;2.80;;;;;;;;;;5070350;28;20032;-75
2023/06/13 04:02:35;;;;;;;4.78;2.90;;;;;;;;;;5083880;28;20040;-74
2023/06/13 04:05:01;;;;;;;6.25;2.80;;;;;;;;;;5060638;28;20064;-75
2023/06/13 04:07:26;;;;;;;2.80;2.30;;;;;;;;;;5067337;28;20574;-74
2023/06/13 04:09:52;;;;;;;3.08;2.60;;;;;;;;;;5072157;28;20038;-75
2023/06/13 04:12:17;;;;;;;2.80;2.60;;;;;;;;;;5074526;28;20056;-74
2023/06/13 04:14:42;;;;;;;5.72;2.97;;;;;;;;;;5065118;28;20532;-74
2023/06/13 04:17:09;;;;;;;3.25;2.65;;;;;;;;;;5062564;28;20029;-75
2023/06/13 04:19:35;;;;;;;8.05;2.50;;;;;;;;;;5067761;28;20059;-74
2023/06/13 04:22:01;;;;;;;7.80;2.88;;;;;;;;;;5077591;28;20071;-77
2023/06/13 04:24:26;;;;;;;5.03;2.90;;;;;;;;;;5066156;28;20033;-74
2023/06/13 04:26:52;;;;;;;4.55;2.50;;;;;;;;;;5064578;28;20032;-74
2023/06/13 04:29:18;;;;;;;4.93;2.35;;;;;;;;;;5066742;28;20098;-74
2023/06/13 04:31:45;;;;;;;2.65;2.45;;;;;;;;;;5072957;28;20029;-74
2023/06/13 04:34:11;;;;;;;3.10;2.80;;;;;;;;;;5063897;28;20494;-74
2023/06/13 04:36:38;;;;;;;5.70;2.60;;;;;;;;;;5072045;28;20410;-75
2023/06/13 04:39:04;;;;;;;7.57;2.60;;;;;;;;;;5079672;28;20163;-74
2023/06/13 04:41:34;;;;;;;2.88;2.50;;;;;;;;;;5075827;28;20092;-75
2023/06/13 04:43:59;;;;;;;4.63;3.03;;;;;;;;;;5055614;28;20491;-75
2023/06/13 04:46:26;;;;;;;3.78;2.88;;;;;;;;;;5079163;28;20039;-75
2023/06/13 04:48:51;;;;;;;3.38;2.65;;;;;;;;;;5073702;28;20048;-75
2023/06/13 04:51:20;;;;;;;11.20;3.97;;;;;;;;;;5074243;28;20063;-75
2023/06/13 04:53:46;;;;;;;3.35;2.67;;;;;;;;;;5085855;28;20020;-75
2023/06/13 04:56:11;;;;;;;4.65;2.85;;;;;;;;;;5081663;28;20513;-75
2023/06/13 04:58:36;;;;;;;5.10;3.35;;;;;;;;;;5074259;28;20040;-75
2023/06/13 05:01:02;;;;;;;7.45;2.63;;;;;;;;;;5066763;28;20555;-75
2023/06/13 05:03:28;;;;;;;3.10;2.47;;;;;;;;;;5070541;28;20111;-75
2023/06/13 05:05:53;;;;;;;2.70;2.50;;;;;;;;;;5077932;28;20055;-75
2023/06/13 05:08:21;;;;;;;6.88;2.65;;;;;;;;;;5070691;28;20553;-75
2023/06/13 05:10:47;;;;;;;2.53;2.33;;;;;;;;;;5073420;28;20038;-75
2023/06/13 05:13:13;;;;;;;6.03;2.67;;;;;;;;;;5069990;28;20067;-75
2023/06/13 05:15:39;;;;;;;6.85;2.55;;;;;;;;;;5065528;28;20060;-76
2023/06/13 05:18:07;;;;;;;7.72;2.70;;;;;;;;;;5061384;28;20048;-76
2023/06/13 05:20:33;;;;;;;4.75;2.72;;;;;;;;;;5063468;28;20056;-75
2023/06/13 05:23:02;;;;;;;3.80;2.85;;;;;;;;;;5068549;28;20078;-75
2023/06/13 05:25:29;;;;;;;5.47;2.92;;;;;;;;;;5060718;28;20110;-75
2023/06/13 05:27:55;;;;;;;3.95;3.33;;;;;;;;;;5059580;28;20064;-76
2023/06/13 05:30:21;;;;;;;3.67;3.10;;;;;;;;;;5063461;28;20025;-75
2023/06/13 05:32:46;;;;;;;3.55;2.70;;;;;;;;;;5066706;28;20094;-75
2023/06/13 05:35:12;;;;;;;2.95;2.45;;;;;;;;;;5053551;28;20074;-75
2023/06/13 05:37:37;;;;;;;2.55;2.28;;;;;;;;;;5072484;28;20063;-75
2023/06/13 05:40:08;;;;;;;3.47;2.50;;;;;;;;;;5053183;28;20037;-75
2023/06/13 05:42:35;;;;;;;3.45;2.90;;;;;;;;;;5056138;28;20570;-75
2023/06/13 05:45:04;;;;;;;6.85;2.67;;;;;;;;;;5059251;28;20025;-76
2023/06/13 05:47:30;;;;;;;3.78;2.78;;;;;;;;;;5058341;28;20045;-75
2023/06/13 05:49:55;;;;;;;3.05;2.50;;;;;;;;;;5059324;28;20123;-75
2023/06/13 05:52:21;;;;;;;3.30;2.65;;;;;;;;;;5059908;28;20095;-75
2023/06/13 05:54:46;;;;;;;2.45;2.25;;;;;;;;;;5058105;28;20168;-74
2023/06/13 05:57:12;;;;;;;18.25;3.30;;;;;;;;;;5063762;28;20031;-74
2023/06/13 05:59:37;;;;;;;4.22;2.72;;;;;;;;;;5060362;28;20077;-74
2023/06/13 06:02:03;;;;;;;3.67;3.10;;;;;;;;;;5063551;28;20037;-74
2023/06/13 06:04:28;;;;;;;7.47;3.10;;;;;;;;;;5062618;28;20039;-74
2023/06/13 06:06:54;;;;;;;9.65;2.63;;;;;;;;;;5062246;28;20041;-74
2023/06/13 06:09:19;;;;;;;4.05;2.58;;;;;;;;;;5062991;28;20033;-74
2023/06/13 06:11:44;;;;;;;3.33;2.80;;;;;;;;;;5062578;28;20049;-75
2023/06/13 06:14:10;;;;;;;3.40;2.70;;;;;;;;;;5050785;28;20039;-74
2023/06/13 06:16:35;;;;;;;3.95;3.00;;;;;;;;;;5056847;28;20044;-75
2023/06/13 06:19:00;;;;;;;3.72;2.72;;;;;;;;;;5057443;28;20051;-75
2023/06/13 06:21:25;;;;;;;2.80;2.60;;;;;;;;;;5063340;28;20036;-75
2023/06/13 06:23:51;;;;;;;6.68;3.28;;;;;;;;;;5062296;28;20028;-75
2023/06/13 06:26:16;;;;;;;7.22;3.20;;;;;;;;;;5063434;28;20041;-75
2023/06/13 06:28:41;;;;;;;6.65;2.63;;;;;;;;;;5058462;28;20047;-77
2023/06/13 06:31:07;;;;;;;3.30;3.00;;;;;;;;;;5061688;28;20055;-76
2023/06/13 06:33:32;;;;;;;3.95;2.92;;;;;;;;;;5055998;28;20037;-75
2023/06/13 06:35:57;;;;;;;3.75;3.00;;;;;;;;;;5050806;28;20032;-76
2023/06/13 06:38:23;;;;;;;3.25;2.60;;;;;;;;;;5064839;28;20032;-75
2023/06/13 06:40:48;;;;;;;9.30;3.30;;;;;;;;;;5053963;28;20093;-75
2023/06/13 06:43:14;;;;;;;6.82;3.13;;;;;;;;;;5050575;28;20037;-75
2023/06/13 06:45:39;;;;;;;3.13;2.80;;;;;;;;;;5056026;28;20048;-75
2023/06/13 06:48:04;;;;;;;4.20;2.80;;;;;;;;;;5063045;28;20021;-75
2023/06/13 06:50:30;;;;;;;5.25;2.58;;;;;;;;;;5065528;28;20104;-75
2023/06/13 06:52:55;;;;;;;5.03;2.60;;;;;;;;;;5058690;28;20396;-74
2023/06/13 06:55:20;;;;;;;4.20;2.80;;;;;;;;;;5068109;28;20040;-74
2023/06/13 06:57:46;;;;;;;3.92;2.80;;;;;;;;;;5071508;28;20044;-74
2023/06/13 07:00:14;;;;;;;6.50;2.53;;;;;;;;;;5063226;28;20477;-75
2023/06/13 07:02:40;;;;;;;7.20;3.20;;;;;;;;;;5067713;28;20497;-75
2023/06/13 07:05:06;;;;;;;6.72;3.00;;;;;;;;;;5072682;28;20041;-76
2023/06/13 07:07:32;;;;;;;4.43;2.50;;;;;;;;;;5059756;28;20070;-75
2023/06/13 07:09:58;;;;;;;4.15;2.70;;;;;;;;;;5060195;28;20411;-76
2023/06/13 07:12:23;;;;;;;3.03;2.38;;;;;;;;;;5068352;28;20037;-75
2023/06/13 07:14:49;;;;;;;8.80;2.65;;;;;;;;;;5075010;28;20111;-76
2023/06/13 07:17:14;;;;;;;2.92;2.63;;;;;;;;;;5065075;28;20449;-76
2023/06/13 07:19:39;;;;;;;5.07;2.72;;;;;;;;;;5066121;28;20086;-75
2023/06/13 07:22:05;;;;;;;2.78;2.42;;;;;;;;;;5066499;28;20056;-76
2023/06/13 07:24:30;;;;;;;2.63;2.42;;;;;;;;;;5063844;28;20043;-76
2023/06/13 07:26:55;;;;;;;3.20;2.38;;;;;;;;;;5064503;28;20084;-76
2023/06/13 07:29:20;;;;;;;5.88;3.00;;;;;;;;;;5065900;28;20411;-76
2023/06/13 07:31:46;;;;;;;8.77;2.88;;;;;;;;;;5062984;28;20553;-76
2023/06/13 07:34:11;;;;;;;7.97;2.72;;;;;;;;;;5059789;28;20040;-76
2023/06/13 07:36:39;;;;;;;4.32;2.72;;;;;;;;;;5057259;28;20028;-76
2023/06/13 07:39:14;;;;;;;3.75;2.97;;;;;;;;;;5056578;28;20468;-76
2023/06/13 07:41:39;;;;;;;14.48;2.80;;;;;;;;;;5054574;28;20032;-76
2023/06/13 07:44:05;;;;;;;4.50;2.90;;;;;;;;;;5059337;28;20040;-75
2023/06/13 07:46:31;;;;;;;5.65;3.08;;;;;;;;;;5055439;28;20515;-76
2023/06/13 07:48:57;;;;;;;8.93;2.72;;;;;;;;;;5053293;28;20040;-76
2023/06/13 07:51:22;;;;;;;7.20;3.33;;;;;;;;;;5058632;28;20045;-75
2023/06/13 07:53:47;;;;;;;5.00;2.42;;;;;;;;;;5059851;28;20398;-75
2023/06/13 07:56:13;;;;;;;4.25;2.47;;;;;;;;;;5060962;28;20037;-75
2023/06/13 07:58:39;;;;;;;15.45;2.90;;;;;;;;;;5067048;28;20115;-75
2023/06/13 08:01:04;;;;;;;3.35;2.53;;;;;;;;;;5058319;28;20033;-76
2023/06/13 08:03:30;;;;;;;5.25;2.83;;;;;;;;;;5063362;28;20525;-76
2023/06/13 08:05:55;;;;;;;2.95;2.67;;;;;;;;;;5066106;28;20020;-76
2023/06/13 08:08:20;;;;;;;2.92;2.70;;;;;;;;;;5060294;28;20029;-76
2023/06/13 08:10:46;;;;;;;3.28;2.45;;;;;;;;;;5055840;28;21536;-76
2023/06/13 08:13:11;;;;;;;2.63;2.20;;;;;;;;;;5059119;28;20518;-76
2023/06/13 08:15:36;;;;;;;3.72;2.40;;;;;;;;;;5056233;28;20082;-76
2023/06/13 08:18:02;;;;;;;4.97;2.92;;;;;;;;;;5060964;28;20028;-76
2023/06/13 08:20:27;;;;;;;2.97;2.50;;;;;;;;;;5050986;28;20057;-75
2023/06/13 08:22:52;;;;;;;3.70;2.47;;;;;;;;;;5052728;28;20044;-74
2023/06/13 08:25:17;;;;;;;3.72;2.55;;;;;;;;;;5054284;28;20376;-75
2023/06/13 08:27:44;;;;;;;3.30;2.53;;;;;;;;;;5063033;28;20040;-75
2023/06/13 08:30:10;;;;;;;3.67;2.35;;;;;;;;;;5057475;28;20071;-75
2023/06/13 08:32:35;;;;;;;5.30;3.15;;;;;;;;;;5059820;28;20025;-75
2023/06/13 08:35:01;;;;;;;3.42;2.45;;;;;;;;;;5057810;28;20037;-73
2023/06/13 08:37:27;;;;;;;7.80;2.95;;;;;;;;;;5052351;28;20040;-73
2023/06/13 08:39:52;;;;;;;4.93;2.60;;;;;;;;;;5052353;28;20033;-73
2023/06/13 08:42:19;;;;;;;4.97;2.42;;;;;;;;;;5052298;28;20155;-74
2023/06/13 08:44:45;;;;;;;5.18;3.08;;;;;;;;;;5066163;28;20032;-74
2023/06/13 08:47:11;;;;;;;4.90;2.90;;;;;;;;;;5072037;28;20068;-74
2023/06/13 08:49:36;;;;;;;5.90;2.88;;;;;;;;;;5072315;28;20617;-75
2023/06/13 08:52:05;;;;;;;3.10;2.72;;;;;;;;;;5072183;28;20105;-74
2023/06/13 08:54:33;;;;;;;4.15;2.42;;;;;;;;;;5072297;28;20044;-75
2023/06/13 08:57:03;;;;;;;6.53;2.55;;;;;;;;;;5072454;28;20025;-74
2023/06/13 08:59:33;;;;;;;4.10;2.65;;;;;;;;;;5071558;28;20546;-74
2023/06/13 09:01:58;;;;;;;5.25;2.45;;;;;;;;;;5072450;28;20032;-74
2023/06/13 09:04:27;;;;;;;2.67;2.47;;;;;;;;;;5071655;28;20045;-74
2023/06/13 09:06:56;;;;;;;3.40;2.63;;;;;;;;;;5071140;28;20460;-74
2023/06/13 09:09:22;;;;;;;4.53;2.60;;;;;;;;;;5082236;28;20046;-74
2023/06/13 09:11:49;;;;;;;4.22;2.90;;;;;;;;;;5092366;28;20059;-74
2023/06/13 09:14:15;;;;;;;4.28;3.05;;;;;;;;;;5092158;28;20086;-75
2023/06/13 09:16:41;;;;;;;3.58;2.35;;;;;;;;;;5092295;28;20040;-74
2023/06/13 09:19:06;;;;;;;8.50;2.63;;;;;;;;;;5092025;28;20096;-74
2023/06/13 09:21:33;;;;;;;2.70;2.50;;;;;;;;;;5091943;28;20406;-75
2023/06/13 09:24:00;;;;;;;4.93;2.55;;;;;;;;;;5092257;28;20069;-74
2023/06/13 09:26:26;;;;;;;2.42;2.22;;;;;;;;;;5091471;28;20032;-74
2023/06/13 09:28:51;;;;;;;4.47;2.40;;;;;;;;;;5091453;28;20060;-74
2023/06/13 09:31:17;;;;;;;9.07;2.90;;;;;;;;;;5091296;28;20032;-74
2023/06/13 09:33:44;;;;;;;5.78;2.58;;;;;;;;;;5090301;28;20024;-74
2023/06/13 09:36:10;;;;;;;7.70;2.60;;;;;;;;;;5091437;28;20085;-73
2023/06/13 09:38:37;;;;;;;12.30;2.72;;;;;;;;;;5091818;28;20020;-75
2023/06/13 09:41:07;;;;;;;10.38;2.67;;;;;;;;;;5091307;28;20054;-74
2023/06/13 09:43:32;;;;;;;2.45;2.25;;;;;;;;;;5091418;28;20115;-75
2023/06/13 09:45:58;;;;;;;5.55;2.75;;;;;;;;;;5091281;28;20104;-72
2023/06/13 09:48:23;;;;;;;5.75;3.00;;;;;;;;;;5091207;28;20024;-72
2023/06/13 09:50:52;;;;;;;9.27;2.90;;;;;;;;;;5091860;28;20024;-72
2023/06/13 09:53:18;;;;;;;4.38;2.90;;;;;;;;;;5091439;28;20521;-74
2023/06/13 09:55:43;;;;;;;2.67;2.47;;;;;;;;;;5091417;28;20028;-74
2023/06/13 09:58:08;;;;;;;3.55;2.70;;;;;;;;;;5091421;28;20089;-74
2023/06/13 10:00:34;;;;;;;5.70;3.10;;;;;;;;;;5079564;28;20032;-75
2023/06/13 10:03:01;;;;;;;6.88;2.47;;;;;;;;;;5067078;28;20040;-74
2023/06/13 10:05:26;;;;;;;3.03;2.72;;;;;;;;;;5070759;28;20032;-74
2023/06/13 10:07:52;;;;;;;4.07;2.70;;;;;;;;;;5070974;28;20035;-74
2023/06/13 10:10:18;;;;;;;3.55;2.30;;;;;;;;;;5071045;28;20032;-74
2023/06/13 10:12:58;;;;;;;9.23;2.70;;;;;;;;;;5071155;28;20155;-74
2023/06/13 10:15:32;;;;;;;6.63;2.67;;;;;;;;;;5071261;28;20040;-74
2023/06/13 10:18:02;;;;;;;8.75;2.90;;;;;;;;;;5072497;28;20395;-74
2023/06/13 10:20:29;;;;;;;3.78;2.65;;;;;;;;;;5075253;28;20092;-74
2023/06/13 10:22:56;;;;;;;4.55;2.80;;;;;;;;;;5075248;28;20032;-74
2023/06/13 10:25:26;;;;;;;17.50;2.78;;;;;;;;;;5075049;28;20399;-74
2023/06/13 10:27:55;;;;;;;7.60;2.70;;;;;;;;;;5075019;28;20058;-74
2023/06/13 10:30:45;;;;;;;4.10;2.58;;;;;;;;;;5074874;28;20092;-74
2023/06/13 10:33:28;;;;;;;4.85;3.88;;;;;;;;;;5075027;28;20091;-74
2023/06/13 10:36:00;;;;;;;3.13;2.83;;;;;;;;;;5075639;28;20094;-74
2023/06/13 10:38:45;;;;;;;7.13;2.70;;;;;;;;;;5074789;28;20033;-74
2023/06/13 10:41:26;;;;;;;5.07;2.90;;;;;;;;;;5073475;28;20410;-74
2023/06/13 10:44:00;;;;;;;4.53;3.00;;;;;;;;;;5073225;28;20174;-74
2023/06/13 10:46:25;;;;;;;5.03;3.22;;;;;;;;;;5074549;28;20068;-74
2023/06/13 10:48:52;;;;;;;5.28;2.80;;;;;;;;;;5074607;28;20093;-74
2023/06/13 10:51:22;;;;;;;5.10;2.90;;;;;;;;;;5074598;28;20024;-74
2023/06/13 10:54:02;;;;;;;4.10;3.00;;;;;;;;;;5074981;28;20025;-74
2023/06/13 10:56:32;;;;;;;6.70;2.83;;;;;;;;;;5072667;28;20044;-74
2023/06/13 10:59:02;;;;;;;2.95;2.63;;;;;;;;;;5074336;28;20384;-75
2023/06/13 11:01:29;;;;;;;5.32;3.22;;;;;;;;;;5074394;28;20147;-75
2023/06/13 11:04:21;;;;;;;3.63;2.65;;;;;;;;;;5074129;28;20040;-75
2023/06/13 11:06:49;;;;;;;4.88;2.97;;;;;;;;;;5071019;28;20033;-75
2023/06/13 11:09:21;;;;;;;3.13;2.83;;;;;;;;;;5072988;28;20431;-74
2023/06/13 11:11:52;;;;;;;3.75;2.95;;;;;;;;;;5074816;28;20494;-74
2023/06/13 11:14:26;;;;;;;4.45;2.65;;;;;;;;;;5072748;28;20032;-75
2023/06/13 11:16:52;;;;;;;5.00;2.53;;;;;;;;;;5074099;28;20043;-75
2023/06/13 11:19:26;;;;;;;6.93;3.22;;;;;;;;;;5073719;28;20032;-74
2023/06/13 11:22:13;;;;;;;3.83;2.30;;;;;;;;;;5073970;28;20028;-75
2023/06/13 11:24:40;;;;;;;4.97;3.00;;;;;;;;;;5073735;28;20036;-74
2023/06/13 11:27:07;;;;;;;7.93;2.67;;;;;;;;;;5073624;28;20451;-74
2023/06/13 11:29:33;;;;;;;8.52;2.78;;;;;;;;;;5072250;28;20452;-75
2023/06/13 11:32:01;;;;;;;5.78;2.55;;;;;;;;;;5073804;28;20052;-75
2023/06/13 11:34:31;;;;;;;4.50;2.88;;;;;;;;;;5073628;28;20029;-74
2023/06/13 11:37:06;;;;;;;3.70;2.63;;;;;;;;;;5073336;28;20028;-74
2023/06/13 11:39:38;;;;;;;4.10;2.70;;;;;;;;;;5072021;28;20035;-74
2023/06/13 11:42:04;;;;;;;9.13;2.60;;;;;;;;;;5073570;28;20059;-74
2023/06/13 11:44:30;;;;;;;7.07;2.88;;;;;;;;;;5073846;28;20059;-74
2023/06/13 11:46:56;;;;;;;3.50;2.60;;;;;;;;;;5073225;28;20036;-74
2023/06/13 11:49:21;;;;;;;4.03;2.60;;;;;;;;;;5072241;28;20074;-74
2023/06/13 11:51:46;;;;;;;3.97;2.67;;;;;;;;;;5073137;28;20071;-74
2023/06/13 11:54:12;;;;;;;11.18;2.63;;;;;;;;;;5073053;28;20039;-74
2023/06/13 11:56:50;;;;;;;4.03;2.88;;;;;;;;;;5073120;28;20074;-74
2023/06/13 11:59:19;;;;;;;3.17;2.70;;;;;;;;;;5072396;28;20043;-74
2023/06/13 12:01:53;;;;;;;6.13;2.97;;;;;;;;;;5073023;28;20036;-75
2023/06/13 12:04:19;;;;;;;7.73;2.90;;;;;;;;;;5073244;28;20047;-75
2023/06/13 12:06:45;;;;;;;8.10;2.75;;;;;;;;;;5072657;28;20044;-75
2023/06/13 12:09:10;;;;;;;7.13;2.78;;;;;;;;;;5073130;28;20028;-75
2023/06/13 12:11:36;;;;;;;3.10;2.53;;;;;;;;;;5073286;28;20457;-75
2023/06/13 12:14:02;;;;;;;2.63;2.40;;;;;;;;;;5073253;28;20052;-75
2023/06/13 12:16:29;;;;;;;3.88;2.83;;;;;;;;;;5072985;28;20055;-75
2023/06/13 12:18:55;;;;;;;5.90;2.78;;;;;;;;;;5073223;28;20056;-75
2023/06/13 12:21:27;;;;;;;3.40;2.53;;;;;;;;;;5073173;28;20099;-75
2023/06/13 12:23:54;;;;;;;6.78;2.88;;;;;;;;;;5073260;28;20023;-75
2023/06/13 12:26:19;;;;;;;3.08;2.65;;;;;;;;;;5072862;28;20123;-75
2023/06/13 12:28:47;;;;;;;3.17;2.83;;;;;;;;;;5071347;28;20459;-75
2023/06/13 12:31:13;;;;;;;6.70;3.00;;;;;;;;;;5071444;28;20036;-75
2023/06/13 12:33:38;;;;;;;3.58;2.65;;;;;;;;;;5072679;28;20040;-73
2023/06/13 12:36:04;;;;;;;6.55;2.72;;;;;;;;;;5072371;28;20479;-74
2023/06/13 12:38:31;;;;;;;6.45;3.05;;;;;;;;;;5072670;28;20059;-73
2023/06/13 12:40:57;;;;;;;5.22;2.78;;;;;;;;;;5078747;28;20036;-73
2023/06/13 12:43:28;;;;;;;6.38;2.80;;;;;;;;;;5091729;28;20581;-74
2023/06/13 12:45:58;;;;;;;10.48;3.03;;;;;;;;;;5090312;28;20040;-74
2023/06/13 12:48:23;;;;;;;7.68;2.50;;;;;;;;;;5090941;28;20548;-74
2023/06/13 12:50:49;;;;;;;6.70;2.97;;;;;;;;;;5093078;28;20024;-74
2023/06/13 12:53:21;;;;;;;4.78;2.83;;;;;;;;;;5092303;28;20043;-74
2023/06/13 12:55:48;;;;;;;8.13;2.30;;;;;;;;;;5087032;28;20108;-74
2023/06/13 12:58:36;;;;;;;6.55;3.17;;;;;;;;;;5071638;28;20029;-73
2023/06/13 13:01:04;;;;;;;4.88;3.20;;;;;;;;;;5072100;28;20120;-73
2023/06/13 13:03:31;;;;;;;3.72;2.13;;;;;;;;;;5081811;28;20089;-73
2023/06/13 13:05:56;;;;;;;5.22;2.65;;;;;;;;;;5092521;28;20032;-73
2023/06/13 13:08:22;;;;;;;3.63;2.60;;;;;;;;;;5092030;28;20035;-73
2023/06/13 13:10:49;;;;;;;4.45;2.28;;;;;;;;;;5092064;28;20098;-75
2023/06/13 13:13:14;;;;;;;6.05;2.70;;;;;;;;;;5092009;28;20028;-72
2023/06/13 13:15:40;;;;;;;9.40;2.75;;;;;;;;;;5091794;28;20035;-74
2023/06/13 13:18:06;;;;;;;6.25;2.50;;;;;;;;;;5091959;28;20060;-74
2023/06/13 13:20:31;;;;;;;5.65;2.60;;;;;;;;;;5092291;28;20035;-73
2023/06/13 13:22:57;;;;;;;3.53;2.80;;;;;;;;;;5091923;28;20036;-74
2023/06/13 13:25:22;;;;;;;6.13;2.80;;;;;;;;;;5091851;28;20028;-73
2023/06/13 13:27:47;;;;;;;3.67;2.60;;;;;;;;;;5091878;28;20107;-75
2023/06/13 13:30:14;;;;;;;5.20;2.70;;;;;;;;;;5091975;28;20492;-74
2023/06/13 13:32:40;;;;;;;3.13;2.33;;;;;;;;;;5092365;28;20103;-74
2023/06/13 13:35:06;;;;;;;4.22;2.53;;;;;;;;;;5091811;28;20047;-74
2023/06/13 13:37:32;;;;;;;8.02;2.72;;;;;;;;;;5091358;28;20090;-74
2023/06/13 13:39:58;;;;;;;2.95;2.58;;;;;;;;;;5091833;28;20028;-75
2023/06/13 13:42:23;;;;;;;6.80;2.72;;;;;;;;;;5091623;28;20387;-73
2023/06/13 13:44:48;;;;;;;4.03;2.70;;;;;;;;;;5091763;28;20665;-74
2023/06/13 13:47:14;;;;;;;3.25;2.80;;;;;;;;;;5091499;28;20550;-73
2023/06/13 13:49:39;;;;;;;4.47;2.60;;;;;;;;;;5091840;28;20035;-74
2023/06/13 13:52:05;;;;;;;3.10;2.80;;;;;;;;;;5091235;28;20514;-73
2023/06/13 13:54:30;;;;;;;3.58;3.20;;;;;;;;;;5091155;28;20073;-73
2023/06/13 13:56:56;;;;;;;4.28;2.63;;;;;;;;;;5091877;28;20471;-73
2023/06/13 13:59:21;;;;;;;6.13;2.95;;;;;;;;;;5091493;28;20036;-74
2023/06/13 14:01:47;;;;;;;4.13;2.75;;;;;;;;;;5091336;28;20452;-73
2023/06/13 14:04:13;;;;;;;7.68;2.40;;;;;;;;;;5091305;28;20040;-73
2023/06/13 14:06:39;;;;;;;4.40;2.47;;;;;;;;;;5091136;28;20024;-73
2023/06/13 14:09:04;;;;;;;4.70;2.80;;;;;;;;;;5091228;28;20049;-73
2023/06/13 14:11:29;;;;;;;7.57;2.58;;;;;;;;;;5091788;28;20036;-75
2023/06/13 14:13:57;;;;;;;3.65;2.50;;;;;;;;;;5091535;28;20028;-74
2023/06/13 14:16:22;;;;;;;4.45;2.92;;;;;;;;;;5093160;28;20073;-74
2023/06/13 14:18:48;;;;;;;4.00;2.50;;;;;;;;;;5090273;28;20058;-74
2023/06/13 14:21:13;;;;;;;2.97;2.47;;;;;;;;;;5090011;28;20031;-73
2023/06/13 14:23:38;;;;;;;5.68;2.60;;;;;;;;;;5091768;28;20394;-74
2023/06/13 14:26:04;;;;;;;16.33;2.90;;;;;;;;;;5091269;28;20134;-74
2023/06/13 14:28:29;;;;;;;3.78;2.58;;;;;;;;;;5091598;28;20039;-74
2023/06/13 14:30:54;;;;;;;6.47;2.60;;;;;;;;;;5091597;28;20028;-74
2023/06/13 14:33:21;;;;;;;9.05;2.97;;;;;;;;;;5091655;28;20024;-75
2023/06/13 14:35:46;;;;;;;4.63;2.88;;;;;;;;;;5091762;28;20032;-72
2023/06/13 14:38:12;;;;;;;5.22;2.65;;;;;;;;;;5090831;28;20494;-73
2023/06/13 14:40:37;;;;;;;4.15;2.70;;;;;;;;;;5091531;28;20153;-73
2023/06/13 14:43:03;;;;;;;3.92;2.50;;;;;;;;;;5091253;28;20036;-73